sensor_id;sensor_type;location;lat;lon;timestamp;temperature;humidity
27200;DHT22;14714;48.106;11.546;2023-07-13T00:01:54;18.50;99.90
27200;DHT22;14714;48.106;11.546;2023-07-13T00:04:23;18.40;99.90
27200;DHT22;14714;48.106;11.546;2023-07-13T00:06:53;18.40;99.90
27200;DHT22;14714;48.106;11.546;2023-07-13T00:09:21;18.40;99.90
27200;DHT22;14714;48.106;11.546;2023-07-13T00:11:54;18.40;99.90
27200;DHT22;14714;48.106;11.546;2023-07-13T00:14:22;18.40;99.90
27200;DHT22;14714;48.106;11.546;2023-07-13T00:16:49;18.40;99.90
27200;DHT22;14714;48.106;11.546;2023-07-13T00:19:16;18.40;99.90
27200;DHT22;14714;48.106;11.546;2023-07-13T00:21:43;18.40;99.90
27200;DHT22;14714;48.106;11.546;2023-07-13T00:24:15;18.40;99.90
27200;DHT22;14714;48.106;11.546;2023-07-13T00:26:43;18.40;99.90
27200;DHT22;14714;48.106;11.546;2023-07-13T00:29:12;18.40;99.90
27200;DHT22;14714;48.106;11.546;2023-07-13T00:31:39;18.50;99.90
27200;DHT22;14714;48.106;11.546;2023-07-13T00:34:06;18.50;99.90
27200;DHT22;14714;48.106;11.546;2023-07-13T00:36:33;18.50;99.90
27200;DHT22;14714;48.106;11.546;2023-07-13T00:39:00;18.50;99.90
27200;DHT22;14714;48.106;11.546;2023-07-13T00:41:27;18.40;99.90
27200;DHT22;14714;48.106;11.546;2023-07-13T00:43:54;18.40;99.90
27200;DHT22;14714;48.106;11.546;2023-07-13T00:46:24;18.40;99.90
27200;DHT22;14714;48.106;11.546;2023-07-13T00:48:53;18.50;99.90
27200;DHT22;14714;48.106;11.546;2023-07-13T00:51:25;18.50;99.90
27200;DHT22;14714;48.106;11.546;2023-07-13T00:53:54;18.50;99.90
27200;DHT22;14714;48.106;11.546;2023-07-13T00:56:23;18.50;99.90
27200;DHT22;14714;48.106;11.546;2023-07-13T00:58:50;18.50;99.90
27200;DHT22;14714;48.106;11.546;2023-07-13T01:01:18;18.50;99.90
27200;DHT22;14714;48.106;11.546;2023-07-13T01:03:45;18.50;99.90
27200;DHT22;14714;48.106;11.546;2023-07-13T01:06:13;18.50;99.90
27200;DHT22;14714;48.106;11.546;2023-07-13T01:08:40;18.50;99.90
27200;DHT22;14714;48.106;11.546;2023-07-13T01:11:07;18.50;99.90
27200;DHT22;14714;48.106;11.546;2023-07-13T01:13:34;18.50;99.90
27200;DHT22;14714;48.106;11.546;2023-07-13T01:16:05;18.50;99.90
27200;DHT22;14714;48.106;11.546;2023-07-13T01:18:38;18.40;99.90
27200;DHT22;14714;48.106;11.546;2023-07-13T01:21:05;18.40;99.90
27200;DHT22;14714;48.106;11.546;2023-07-13T01:23:32;18.40;99.90
27200;DHT22;14714;48.106;11.546;2023-07-13T01:25:59;18.40;99.90
27200;DHT22;14714;48.106;11.546;2023-07-13T01:28:28;18.30;99.90
27200;DHT22;14714;48.106;11.546;2023-07-13T01:30:57;18.30;99.90
27200;DHT22;14714;48.106;11.546;2023-07-13T01:33:25;18.30;99.90
27200;DHT22;14714;48.106;11.546;2023-07-13T01:35:52;18.30;99.90
27200;DHT22;14714;48.106;11.546;2023-07-13T01:38:21;18.30;99.90
27200;DHT22;14714;48.106;11.546;2023-07-13T01:40:50;18.20;99.90
27200;DHT22;14714;48.106;11.546;2023-07-13T01:43:17;18.20;99.90
27200;DHT22;14714;48.106;11.546;2023-07-13T01:45:45;18.20;99.90
27200;DHT22;14714;48.106;11.546;2023-07-13T01:48:13;18.20;99.90
27200;DHT22;14714;48.106;11.546;2023-07-13T01:50:40;18.20;99.90
27200;DHT22;14714;48.106;11.546;2023-07-13T01:53:07;18.10;99.90
27200;DHT22;14714;48.106;11.546;2023-07-13T01:55:35;18.10;99.90
27200;DHT22;14714;48.106;11.546;2023-07-13T01:58:03;18.10;99.90
27200;DHT22;14714;48.106;11.546;2023-07-13T02:00:30;18.10;99.90
27200;DHT22;14714;48.106;11.546;2023-07-13T02:02:57;18.10;99.90
27200;DHT22;14714;48.106;11.546;2023-07-13T02:05:25;18.10;99.90
27200;DHT22;14714;48.106;11.546;2023-07-13T02:07:52;18.10;99.90
27200;DHT22;14714;48.106;11.546;2023-07-13T02:10:19;18.10;99.90
27200;DHT22;14714;48.106;11.546;2023-07-13T02:12:48;18.10;99.90
27200;DHT22;14714;48.106;11.546;2023-07-13T02:15:16;18.10;99.90
27200;DHT22;14714;48.106;11.546;2023-07-13T02:17:43;18.10;99.90
27200;DHT22;14714;48.106;11.546;2023-07-13T02:20:10;18.10;99.90
27200;DHT22;14714;48.106;11.546;2023-07-13T02:22:37;18.10;99.90
27200;DHT22;14714;48.106;11.546;2023-07-13T02:25:04;18.10;99.90
27200;DHT22;14714;48.106;11.546;2023-07-13T02:27:31;18.10;99.90
27200;DHT22;14714;48.106;11.546;2023-07-13T02:29:58;18.10;99.90
27200;DHT22;14714;48.106;11.546;2023-07-13T02:32:25;18.10;99.90
27200;DHT22;14714;48.106;11.546;2023-07-13T02:34:52;18.10;99.90
27200;DHT22;14714;48.106;11.546;2023-07-13T02:37:19;18.10;99.90
27200;DHT22;14714;48.106;11.546;2023-07-13T02:39:46;18.10;99.90
27200;DHT22;14714;48.106;11.546;2023-07-13T02:42:14;18.10;99.90
27200;DHT22;14714;48.106;11.546;2023-07-13T02:44:41;18.20;99.90
27200;DHT22;14714;48.106;11.546;2023-07-13T02:47:08;18.20;99.90
27200;DHT22;14714;48.106;11.546;2023-07-13T02:49:35;18.20;99.90
27200;DHT22;14714;48.106;11.546;2023-07-13T02:52:03;18.20;99.90
27200;DHT22;14714;48.106;11.546;2023-07-13T02:54:30;18.20;99.90
27200;DHT22;14714;48.106;11.546;2023-07-13T02:56:57;18.20;99.90
27200;DHT22;14714;48.106;11.546;2023-07-13T02:59:24;18.20;99.90
27200;DHT22;14714;48.106;11.546;2023-07-13T03:01:50;18.20;99.90
27200;DHT22;14714;48.106;11.546;2023-07-13T03:04:18;18.20;99.90
27200;DHT22;14714;48.106;11.546;2023-07-13T03:06:46;18.20;99.90
27200;DHT22;14714;48.106;11.546;2023-07-13T03:09:13;18.20;99.90
27200;DHT22;14714;48.106;11.546;2023-07-13T03:11:40;18.20;99.90
27200;DHT22;14714;48.106;11.546;2023-07-13T03:14:07;18.10;99.90
27200;DHT22;14714;48.106;11.546;2023-07-13T03:16:34;18.10;99.90
27200;DHT22;14714;48.106;11.546;2023-07-13T03:19:01;18.10;99.90
27200;DHT22;14714;48.106;11.546;2023-07-13T03:21:28;18.00;99.90
27200;DHT22;14714;48.106;11.546;2023-07-13T03:23:55;18.00;99.90
27200;DHT22;14714;48.106;11.546;2023-07-13T03:26:22;17.90;99.90
27200;DHT22;14714;48.106;11.546;2023-07-13T03:28:49;17.80;99.90
27200;DHT22;14714;48.106;11.546;2023-07-13T03:31:19;17.80;99.90
27200;DHT22;14714;48.106;11.546;2023-07-13T03:33:46;17.70;99.90
27200;DHT22;14714;48.106;11.546;2023-07-13T03:36:17;17.70;99.90
27200;DHT22;14714;48.106;11.546;2023-07-13T03:38:50;17.60;99.90
27200;DHT22;14714;48.106;11.546;2023-07-13T03:41:17;17.60;99.90
27200;DHT22;14714;48.106;11.546;2023-07-13T03:43:44;17.50;99.90
27200;DHT22;14714;48.106;11.546;2023-07-13T03:46:11;17.50;99.90
27200;DHT22;14714;48.106;11.546;2023-07-13T03:48:38;17.50;99.90
27200;DHT22;14714;48.106;11.546;2023-07-13T03:51:06;17.40;99.90
27200;DHT22;14714;48.106;11.546;2023-07-13T03:53:35;17.40;99.90
27200;DHT22;14714;48.106;11.546;2023-07-13T03:56:01;17.40;99.90
27200;DHT22;14714;48.106;11.546;2023-07-13T04:00:58;17.40;99.90
27200;DHT22;14714;48.106;11.546;2023-07-13T04:03:26;17.40;99.90
27200;DHT22;14714;48.106;11.546;2023-07-13T04:05:55;17.40;99.90
27200;DHT22;14714;48.106;11.546;2023-07-13T04:08:30;17.40;99.90
27200;DHT22;14714;48.106;11.546;2023-07-13T04:10:58;17.30;99.90
27200;DHT22;14714;48.106;11.546;2023-07-13T04:13:26;17.30;99.90
27200;DHT22;14714;48.106;11.546;2023-07-13T04:15:53;17.30;99.90
27200;DHT22;14714;48.106;11.546;2023-07-13T04:18:21;17.20;99.90
27200;DHT22;14714;48.106;11.546;2023-07-13T04:20:49;17.20;99.90
27200;DHT22;14714;48.106;11.546;2023-07-13T04:23:17;17.10;99.90
27200;DHT22;14714;48.106;11.546;2023-07-13T04:25:48;17.10;99.90
27200;DHT22;14714;48.106;11.546;2023-07-13T04:28:16;17.10;99.90
27200;DHT22;14714;48.106;11.546;2023-07-13T04:30:44;17.10;99.90
27200;DHT22;14714;48.106;11.546;2023-07-13T04:33:11;17.10;99.90
27200;DHT22;14714;48.106;11.546;2023-07-13T04:35:38;17.10;99.90
27200;DHT22;14714;48.106;11.546;2023-07-13T04:38:05;17.20;99.90
27200;DHT22;14714;48.106;11.546;2023-07-13T04:40:33;17.20;99.90
27200;DHT22;14714;48.106;11.546;2023-07-13T04:42:59;17.20;99.90
27200;DHT22;14714;48.106;11.546;2023-07-13T04:45:26;17.20;99.90
27200;DHT22;14714;48.106;11.546;2023-07-13T04:47:53;17.10;99.90
27200;DHT22;14714;48.106;11.546;2023-07-13T04:50:20;17.20;99.90
27200;DHT22;14714;48.106;11.546;2023-07-13T04:52:50;17.10;99.90
27200;DHT22;14714;48.106;11.546;2023-07-13T04:55:18;17.10;99.90
27200;DHT22;14714;48.106;11.546;2023-07-13T04:57:46;17.20;99.90
27200;DHT22;14714;48.106;11.546;2023-07-13T05:00:14;17.20;99.90
27200;DHT22;14714;48.106;11.546;2023-07-13T05:02:44;17.20;99.90
27200;DHT22;14714;48.106;11.546;2023-07-13T05:05:11;17.30;99.90
27200;DHT22;14714;48.106;11.546;2023-07-13T05:07:37;17.30;99.90
27200;DHT22;14714;48.106;11.546;2023-07-13T05:10:05;17.30;99.90
27200;DHT22;14714;48.106;11.546;2023-07-13T05:12:32;17.30;99.90
27200;DHT22;14714;48.106;11.546;2023-07-13T05:14:58;17.40;99.90
27200;DHT22;14714;48.106;11.546;2023-07-13T05:17:25;17.40;99.90
27200;DHT22;14714;48.106;11.546;2023-07-13T05:19:52;17.40;99.90
27200;DHT22;14714;48.106;11.546;2023-07-13T05:22:19;17.50;99.90
27200;DHT22;14714;48.106;11.546;2023-07-13T05:24:46;17.50;99.90
27200;DHT22;14714;48.106;11.546;2023-07-13T05:27:13;17.50;99.90
27200;DHT22;14714;48.106;11.546;2023-07-13T05:29:39;17.50;99.90
27200;DHT22;14714;48.106;11.546;2023-07-13T05:32:06;17.50;99.90
27200;DHT22;14714;48.106;11.546;2023-07-13T05:34:33;17.50;99.90
27200;DHT22;14714;48.106;11.546;2023-07-13T05:37:00;17.50;99.90
27200;DHT22;14714;48.106;11.546;2023-07-13T05:39:27;17.50;99.90
27200;DHT22;14714;48.106;11.546;2023-07-13T05:41:54;17.50;99.90
27200;DHT22;14714;48.106;11.546;2023-07-13T05:44:21;17.50;99.90
27200;DHT22;14714;48.106;11.546;2023-07-13T05:46:48;17.50;99.90
27200;DHT22;14714;48.106;11.546;2023-07-13T05:49:15;17.50;99.90
27200;DHT22;14714;48.106;11.546;2023-07-13T05:51:42;17.60;99.90
27200;DHT22;14714;48.106;11.546;2023-07-13T05:54:09;17.60;99.90
27200;DHT22;14714;48.106;11.546;2023-07-13T05:56:36;17.70;99.90
27200;DHT22;14714;48.106;11.546;2023-07-13T05:59:03;17.80;99.90
27200;DHT22;14714;48.106;11.546;2023-07-13T06:01:30;18.00;99.90
27200;DHT22;14714;48.106;11.546;2023-07-13T06:03:57;18.10;99.90
27200;DHT22;14714;48.106;11.546;2023-07-13T06:06:24;18.30;99.90
27200;DHT22;14714;48.106;11.546;2023-07-13T06:08:51;18.40;99.90
27200;DHT22;14714;48.106;11.546;2023-07-13T06:11:23;18.50;99.90
27200;DHT22;14714;48.106;11.546;2023-07-13T06:13:51;18.70;99.90
27200;DHT22;14714;48.106;11.546;2023-07-13T06:16:18;18.80;99.90
27200;DHT22;14714;48.106;11.546;2023-07-13T06:18:45;18.90;99.90
27200;DHT22;14714;48.106;11.546;2023-07-13T06:21:16;18.90;99.90
27200;DHT22;14714;48.106;11.546;2023-07-13T06:23:44;19.00;99.90
27200;DHT22;14714;48.106;11.546;2023-07-13T06:26:11;19.20;99.90
27200;DHT22;14714;48.106;11.546;2023-07-13T06:28:38;19.50;99.90
27200;DHT22;14714;48.106;11.546;2023-07-13T06:31:07;19.80;99.90
27200;DHT22;14714;48.106;11.546;2023-07-13T06:33:35;20.00;99.90
27200;DHT22;14714;48.106;11.546;2023-07-13T06:36:03;20.20;99.90
27200;DHT22;14714;48.106;11.546;2023-07-13T06:38:31;20.40;99.90
27200;DHT22;14714;48.106;11.546;2023-07-13T06:40:57;20.50;99.90
27200;DHT22;14714;48.106;11.546;2023-07-13T06:43:24;20.70;99.90
27200;DHT22;14714;48.106;11.546;2023-07-13T06:45:54;20.70;99.90
27200;DHT22;14714;48.106;11.546;2023-07-13T06:48:21;20.70;99.90
27200;DHT22;14714;48.106;11.546;2023-07-13T06:50:48;20.60;99.90
27200;DHT22;14714;48.106;11.546;2023-07-13T06:53:17;20.60;99.90
27200;DHT22;14714;48.106;11.546;2023-07-13T06:55:45;20.70;99.90
27200;DHT22;14714;48.106;11.546;2023-07-13T06:58:12;20.70;99.90
27200;DHT22;14714;48.106;11.546;2023-07-13T07:00:39;20.70;99.90
27200;DHT22;14714;48.106;11.546;2023-07-13T07:03:07;20.60;99.90
27200;DHT22;14714;48.106;11.546;2023-07-13T07:05:34;20.70;99.90
27200;DHT22;14714;48.106;11.546;2023-07-13T07:08:01;20.60;99.90
27200;DHT22;14714;48.106;11.546;2023-07-13T07:10:29;20.70;99.90
27200;DHT22;14714;48.106;11.546;2023-07-13T07:12:56;20.80;99.90
27200;DHT22;14714;48.106;11.546;2023-07-13T07:15:23;20.90;99.90
27200;DHT22;14714;48.106;11.546;2023-07-13T07:17:50;21.00;99.90
27200;DHT22;14714;48.106;11.546;2023-07-13T07:20:17;21.10;99.90
27200;DHT22;14714;48.106;11.546;2023-07-13T07:22:44;21.10;99.90
27200;DHT22;14714;48.106;11.546;2023-07-13T07:25:11;21.10;99.90
27200;DHT22;14714;48.106;11.546;2023-07-13T07:27:37;21.10;99.90
27200;DHT22;14714;48.106;11.546;2023-07-13T07:30:08;21.00;99.90
27200;DHT22;14714;48.106;11.546;2023-07-13T07:32:37;21.10;99.90
27200;DHT22;14714;48.106;11.546;2023-07-13T07:35:07;21.10;99.90
27200;DHT22;14714;48.106;11.546;2023-07-13T07:37:34;21.00;99.90
27200;DHT22;14714;48.106;11.546;2023-07-13T07:40:04;20.90;99.90
27200;DHT22;14714;48.106;11.546;2023-07-13T07:42:35;20.90;99.90
27200;DHT22;14714;48.106;11.546;2023-07-13T07:45:01;20.80;99.90
27200;DHT22;14714;48.106;11.546;2023-07-13T07:47:28;20.80;99.90
27200;DHT22;14714;48.106;11.546;2023-07-13T07:49:56;20.70;99.90
27200;DHT22;14714;48.106;11.546;2023-07-13T07:52:23;20.70;99.90
27200;DHT22;14714;48.106;11.546;2023-07-13T07:54:50;20.60;99.90
27200;DHT22;14714;48.106;11.546;2023-07-13T07:57:19;20.60;99.90
27200;DHT22;14714;48.106;11.546;2023-07-13T08:00:07;20.40;99.90
27200;DHT22;14714;48.106;11.546;2023-07-13T08:02:36;20.40;99.90
27200;DHT22;14714;48.106;11.546;2023-07-13T08:05:07;20.30;99.90
27200;DHT22;14714;48.106;11.546;2023-07-13T08:07:38;20.30;99.90
27200;DHT22;14714;48.106;11.546;2023-07-13T08:10:06;20.10;99.90
27200;DHT22;14714;48.106;11.546;2023-07-13T08:12:37;20.00;99.90
27200;DHT22;14714;48.106;11.546;2023-07-13T08:15:12;19.90;99.90
27200;DHT22;14714;48.106;11.546;2023-07-13T08:17:39;19.80;99.90
27200;DHT22;14714;48.106;11.546;2023-07-13T08:20:06;19.70;99.90
27200;DHT22;14714;48.106;11.546;2023-07-13T08:22:33;19.60;99.90
27200;DHT22;14714;48.106;11.546;2023-07-13T08:25:00;19.50;99.90
27200;DHT22;14714;48.106;11.546;2023-07-13T08:27:28;19.40;99.90
27200;DHT22;14714;48.106;11.546;2023-07-13T08:29:55;19.30;99.90
27200;DHT22;14714;48.106;11.546;2023-07-13T08:32:23;19.20;99.90
27200;DHT22;14714;48.106;11.546;2023-07-13T08:34:50;19.20;99.90
27200;DHT22;14714;48.106;11.546;2023-07-13T08:37:18;19.10;99.90
27200;DHT22;14714;48.106;11.546;2023-07-13T08:39:44;19.10;99.90
27200;DHT22;14714;48.106;11.546;2023-07-13T08:42:31;19.00;99.90
27200;DHT22;14714;48.106;11.546;2023-07-13T08:48:17;18.90;99.90
27200;DHT22;14714;48.106;11.546;2023-07-13T08:53:36;19.00;99.90
27200;DHT22;14714;48.106;11.546;2023-07-13T08:56:04;19.10;99.90
27200;DHT22;14714;48.106;11.546;2023-07-13T08:58:33;19.20;99.90
27200;DHT22;14714;48.106;11.546;2023-07-13T09:01:32;19.20;99.90
27200;DHT22;14714;48.106;11.546;2023-07-13T09:04:07;19.20;99.90
27200;DHT22;14714;48.106;11.546;2023-07-13T09:06:44;19.30;99.90
27200;DHT22;14714;48.106;11.546;2023-07-13T09:09:33;19.40;99.90
27200;DHT22;14714;48.106;11.546;2023-07-13T09:12:40;19.50;99.90
27200;DHT22;14714;48.106;11.546;2023-07-13T09:15:39;19.60;99.90
27200;DHT22;14714;48.106;11.546;2023-07-13T09:18:19;19.70;99.90
27200;DHT22;14714;48.106;11.546;2023-07-13T09:20:56;19.70;99.90
27200;DHT22;14714;48.106;11.546;2023-07-13T09:23:25;19.90;99.90
27200;DHT22;14714;48.106;11.546;2023-07-13T09:28:42;20.10;99.90
27200;DHT22;14714;48.106;11.546;2023-07-13T09:31:20;20.20;99.90
27200;DHT22;14714;48.106;11.546;2023-07-13T09:33:50;20.30;99.90
27200;DHT22;14714;48.106;11.546;2023-07-13T09:36:33;20.40;99.90
27200;DHT22;14714;48.106;11.546;2023-07-13T09:44:16;20.70;99.90
27200;DHT22;14714;48.106;11.546;2023-07-13T09:46:46;20.70;99.90
27200;DHT22;14714;48.106;11.546;2023-07-13T09:49:14;20.70;99.90
27200;DHT22;14714;48.106;11.546;2023-07-13T09:51:42;20.70;99.90
27200;DHT22;14714;48.106;11.546;2023-07-13T09:54:24;20.80;99.90
27200;DHT22;14714;48.106;11.546;2023-07-13T09:56:58;21.10;99.90
27200;DHT22;14714;48.106;11.546;2023-07-13T09:59:39;21.20;99.90
27200;DHT22;14714;48.106;11.546;2023-07-13T10:02:32;21.50;99.90
27200;DHT22;14714;48.106;11.546;2023-07-13T10:05:11;21.80;99.90
27200;DHT22;14714;48.106;11.546;2023-07-13T10:07:44;22.30;99.90
27200;DHT22;14714;48.106;11.546;2023-07-13T10:10:18;22.80;99.90
27200;DHT22;14714;48.106;11.546;2023-07-13T10:12:45;23.40;99.90
27200;DHT22;14714;48.106;11.546;2023-07-13T10:15:18;24.00;99.90
27200;DHT22;14714;48.106;11.546;2023-07-13T10:17:54;24.70;99.90
27200;DHT22;14714;48.106;11.546;2023-07-13T10:20:22;25.30;99.90
27200;DHT22;14714;48.106;11.546;2023-07-13T10:23:04;26.00;99.90
27200;DHT22;14714;48.106;11.546;2023-07-13T10:25:36;26.70;99.90
27200;DHT22;14714;48.106;11.546;2023-07-13T10:28:35;27.50;97.40
27200;DHT22;14714;48.106;11.546;2023-07-13T10:31:00;28.20;93.70
27200;DHT22;14714;48.106;11.546;2023-07-13T10:33:28;28.60;92.90
27200;DHT22;14714;48.106;11.546;2023-07-13T10:36:12;28.80;89.80
27200;DHT22;14714;48.106;11.546;2023-07-13T10:38:43;29.10;83.90
27200;DHT22;14714;48.106;11.546;2023-07-13T10:41:20;29.40;78.50
27200;DHT22;14714;48.106;11.546;2023-07-13T10:43:52;29.60;79.80
27200;DHT22;14714;48.106;11.546;2023-07-13T10:46:22;29.80;72.50
27200;DHT22;14714;48.106;11.546;2023-07-13T10:48:53;30.20;67.70
27200;DHT22;14714;48.106;11.546;2023-07-13T10:51:21;30.40;65.30
27200;DHT22;14714;48.106;11.546;2023-07-13T10:54:18;30.60;60.60
27200;DHT22;14714;48.106;11.546;2023-07-13T10:56:51;30.40;57.20
27200;DHT22;14714;48.106;11.546;2023-07-13T10:59:24;30.00;59.80
27200;DHT22;14714;48.106;11.546;2023-07-13T11:04:47;29.60;58.40
27200;DHT22;14714;48.106;11.546;2023-07-13T11:07:51;29.30;61.10
27200;DHT22;14714;48.106;11.546;2023-07-13T11:10:49;29.00;62.10
27200;DHT22;14714;48.106;11.546;2023-07-13T11:13:56;28.70;65.80
27200;DHT22;14714;48.106;11.546;2023-07-13T11:25:21;28.30;62.50
27200;DHT22;14714;48.106;11.546;2023-07-13T11:33:25;29.00;60.20
27200;DHT22;14714;48.106;11.546;2023-07-13T11:38:41;28.60;63.60
27200;DHT22;14714;48.106;11.546;2023-07-13T11:41:43;28.50;62.80
27200;DHT22;14714;48.106;11.546;2023-07-13T11:44:21;28.40;61.40
27200;DHT22;14714;48.106;11.546;2023-07-13T11:46:50;28.50;59.40
27200;DHT22;14714;48.106;11.546;2023-07-13T11:49:23;28.30;58.10
27200;DHT22;14714;48.106;11.546;2023-07-13T11:51:51;28.10;59.50
27200;DHT22;14714;48.106;11.546;2023-07-13T11:54:33;27.90;62.50
27200;DHT22;14714;48.106;11.546;2023-07-13T11:59:46;27.70;63.90
27200;DHT22;14714;48.106;11.546;2023-07-13T12:02:23;27.40;60.30
27200;DHT22;14714;48.106;11.546;2023-07-13T12:04:52;27.30;63.70
27200;DHT22;14714;48.106;11.546;2023-07-13T12:07:19;27.30;64.40
27200;DHT22;14714;48.106;11.546;2023-07-13T12:09:46;27.30;65.20
27200;DHT22;14714;48.106;11.546;2023-07-13T12:12:17;27.40;63.20
27200;DHT22;14714;48.106;11.546;2023-07-13T12:14:44;27.40;62.40
27200;DHT22;14714;48.106;11.546;2023-07-13T12:17:22;27.40;60.70
27200;DHT22;14714;48.106;11.546;2023-07-13T12:19:52;27.40;63.10
27200;DHT22;14714;48.106;11.546;2023-07-13T12:22:19;27.40;61.30
27200;DHT22;14714;48.106;11.546;2023-07-13T12:24:47;27.40;62.10
27200;DHT22;14714;48.106;11.546;2023-07-13T12:27:26;27.20;59.00
27200;DHT22;14714;48.106;11.546;2023-07-13T12:30:00;27.30;60.10
27200;DHT22;14714;48.106;11.546;2023-07-13T12:32:28;27.20;61.90
27200;DHT22;14714;48.106;11.546;2023-07-13T12:35:26;27.20;61.50
27200;DHT22;14714;48.106;11.546;2023-07-13T12:37:59;27.10;63.60
27200;DHT22;14714;48.106;11.546;2023-07-13T12:40:36;27.10;62.00
27200;DHT22;14714;48.106;11.546;2023-07-13T12:43:04;27.10;61.80
27200;DHT22;14714;48.106;11.546;2023-07-13T12:45:33;27.10;62.40
27200;DHT22;14714;48.106;11.546;2023-07-13T12:48:13;27.20;63.90
27200;DHT22;14714;48.106;11.546;2023-07-13T12:50:43;27.40;62.30
27200;DHT22;14714;48.106;11.546;2023-07-13T12:53:15;27.50;62.50
27200;DHT22;14714;48.106;11.546;2023-07-13T12:55:52;27.50;62.20
27200;DHT22;14714;48.106;11.546;2023-07-13T12:58:40;27.40;59.80
27200;DHT22;14714;48.106;11.546;2023-07-13T13:01:13;27.10;62.30
27200;DHT22;14714;48.106;11.546;2023-07-13T13:03:45;26.90;62.20
27200;DHT22;14714;48.106;11.546;2023-07-13T13:08:57;26.70;63.60
27200;DHT22;14714;48.106;11.546;2023-07-13T13:11:30;26.50;66.60
27200;DHT22;14714;48.106;11.546;2023-07-13T13:13:57;26.30;63.30
27200;DHT22;14714;48.106;11.546;2023-07-13T13:16:30;26.10;63.90
27200;DHT22;14714;48.106;11.546;2023-07-13T13:19:20;26.00;66.00
27200;DHT22;14714;48.106;11.546;2023-07-13T13:21:49;25.90;65.80
27200;DHT22;14714;48.106;11.546;2023-07-13T13:24:21;25.90;65.20
27200;DHT22;14714;48.106;11.546;2023-07-13T13:26:50;26.00;62.20
27200;DHT22;14714;48.106;11.546;2023-07-13T13:29:22;25.80;61.10
27200;DHT22;14714;48.106;11.546;2023-07-13T13:31:53;25.50;61.40
27200;DHT22;14714;48.106;11.546;2023-07-13T13:34:22;25.30;63.40
27200;DHT22;14714;48.106;11.546;2023-07-13T13:36:53;25.30;64.20
27200;DHT22;14714;48.106;11.546;2023-07-13T13:39:34;25.40;65.20
27200;DHT22;14714;48.106;11.546;2023-07-13T13:42:01;25.40;61.40
27200;DHT22;14714;48.106;11.546;2023-07-13T13:44:28;25.40;64.20
27200;DHT22;14714;48.106;11.546;2023-07-13T13:46:55;25.40;68.00
27200;DHT22;14714;48.106;11.546;2023-07-13T13:49:26;25.50;66.60
27200;DHT22;14714;48.106;11.546;2023-07-13T13:51:54;25.50;67.40
27200;DHT22;14714;48.106;11.546;2023-07-13T13:54:22;25.50;64.10
27200;DHT22;14714;48.106;11.546;2023-07-13T13:56:51;25.60;64.70
27200;DHT22;14714;48.106;11.546;2023-07-13T13:59:19;25.70;66.10
27200;DHT22;14714;48.106;11.546;2023-07-13T14:01:47;25.90;66.00
27200;DHT22;14714;48.106;11.546;2023-07-13T14:04:19;25.90;63.50
27200;DHT22;14714;48.106;11.546;2023-07-13T14:06:46;25.90;64.90
27200;DHT22;14714;48.106;11.546;2023-07-13T14:09:17;26.00;63.30
27200;DHT22;14714;48.106;11.546;2023-07-13T14:11:46;26.00;64.20
27200;DHT22;14714;48.106;11.546;2023-07-13T14:14:19;26.10;64.10
27200;DHT22;14714;48.106;11.546;2023-07-13T14:16:47;26.10;63.50
27200;DHT22;14714;48.106;11.546;2023-07-13T14:19:20;26.10;62.10
27200;DHT22;14714;48.106;11.546;2023-07-13T14:21:47;25.90;62.30
27200;DHT22;14714;48.106;11.546;2023-07-13T14:24:16;25.80;65.20
27200;DHT22;14714;48.106;11.546;2023-07-13T14:26:43;25.80;63.90
27200;DHT22;14714;48.106;11.546;2023-07-13T14:29:18;25.90;63.90
27200;DHT22;14714;48.106;11.546;2023-07-13T14:31:50;25.90;60.90
27200;DHT22;14714;48.106;11.546;2023-07-13T14:34:19;25.80;61.70
27200;DHT22;14714;48.106;11.546;2023-07-13T14:36:48;25.70;61.90
27200;DHT22;14714;48.106;11.546;2023-07-13T14:39:18;25.50;59.30
27200;DHT22;14714;48.106;11.546;2023-07-13T14:41:49;25.20;62.70
27200;DHT22;14714;48.106;11.546;2023-07-13T14:44:20;24.80;61.60
27200;DHT22;14714;48.106;11.546;2023-07-13T14:46:47;24.40;64.70
27200;DHT22;14714;48.106;11.546;2023-07-13T14:49:35;24.00;66.10
27200;DHT22;14714;48.106;11.546;2023-07-13T14:52:15;23.90;64.60
27200;DHT22;14714;48.106;11.546;2023-07-13T14:54:42;23.90;66.00
27200;DHT22;14714;48.106;11.546;2023-07-13T14:57:12;24.00;66.20
27200;DHT22;14714;48.106;11.546;2023-07-13T14:59:39;24.20;66.00
27200;DHT22;14714;48.106;11.546;2023-07-13T15:02:21;24.20;66.00
27200;DHT22;14714;48.106;11.546;2023-07-13T15:04:51;24.30;64.80
27200;DHT22;14714;48.106;11.546;2023-07-13T15:07:18;24.30;64.10
27200;DHT22;14714;48.106;11.546;2023-07-13T15:09:47;24.30;65.00
27200;DHT22;14714;48.106;11.546;2023-07-13T15:12:14;24.20;65.00
27200;DHT22;14714;48.106;11.546;2023-07-13T15:14:41;24.10;67.20
27200;DHT22;14714;48.106;11.546;2023-07-13T15:17:33;24.00;65.50
27200;DHT22;14714;48.106;11.546;2023-07-13T15:20:28;24.00;65.20
27200;DHT22;14714;48.106;11.546;2023-07-13T15:22:59;23.90;66.10
27200;DHT22;14714;48.106;11.546;2023-07-13T15:25:28;23.90;65.30
27200;DHT22;14714;48.106;11.546;2023-07-13T15:27:57;23.90;65.80
27200;DHT22;14714;48.106;11.546;2023-07-13T15:30:30;23.80;65.50
27200;DHT22;14714;48.106;11.546;2023-07-13T15:33:01;23.70;66.60
27200;DHT22;14714;48.106;11.546;2023-07-13T15:35:33;23.80;68.40
27200;DHT22;14714;48.106;11.546;2023-07-13T15:38:00;23.80;66.10
27200;DHT22;14714;48.106;11.546;2023-07-13T15:40:28;23.80;65.10
27200;DHT22;14714;48.106;11.546;2023-07-13T15:42:55;23.80;65.70
27200;DHT22;14714;48.106;11.546;2023-07-13T15:45:24;23.70;65.70
27200;DHT22;14714;48.106;11.546;2023-07-13T15:47:54;23.70;67.80
27200;DHT22;14714;48.106;11.546;2023-07-13T15:50:24;23.70;68.00
27200;DHT22;14714;48.106;11.546;2023-07-13T15:52:55;23.60;67.90
27200;DHT22;14714;48.106;11.546;2023-07-13T15:55:25;23.50;68.30
27200;DHT22;14714;48.106;11.546;2023-07-13T15:57:52;23.40;68.30
27200;DHT22;14714;48.106;11.546;2023-07-13T16:00:24;23.40;69.30
27200;DHT22;14714;48.106;11.546;2023-07-13T16:02:51;23.30;66.80
27200;DHT22;14714;48.106;11.546;2023-07-13T16:05:19;23.20;67.40
27200;DHT22;14714;48.106;11.546;2023-07-13T16:07:48;23.20;68.30
27200;DHT22;14714;48.106;11.546;2023-07-13T16:10:19;23.30;69.90
27200;DHT22;14714;48.106;11.546;2023-07-13T16:12:47;23.30;70.30
27200;DHT22;14714;48.106;11.546;2023-07-13T16:15:20;23.40;70.30
27200;DHT22;14714;48.106;11.546;2023-07-13T16:17:48;23.50;69.50